Flight Track Log - Related Links

Times and Time Zones

All times are in EDT time to prevent confusion due to time zone crossing. See the IBE6586 flight status page for this flight to view local times or setup timezone preferences in your user account.

Time Position Orientation Groundspeed Altitude Reporting Facility
EDT Latitude Longitude Course Direction KTS MPH feet Rate Location/Type
Sat 06:18:00 AM 40.9888 -0.3405 77° East  Level Estimated
Sat 06:19:00 AM 41.0083 -0.1992 80° East  Level Estimated
Sat 06:20:00 AM 41.0276 -0.0577 80° East  Level Estimated
Sat 06:21:00 AM 41.0468 0.0838 80° East  Level Estimated
Sat 06:22:00 AM 41.0658 0.2253 80° East  Level Estimated
Sat 06:23:00 AM 41.0845 0.3670 80° East  Level Estimated
Sat 06:24:00 AM 41.1032 0.5087 80° East  Level Estimated
Sat 06:25:00 AM 41.1216 0.6506 80° East  Level Estimated
Sat 06:26:00 AM 41.1399 0.7925 80° East  Level Estimated
Sat 06:27:00 AM 41.1580 0.9344 80° East  Level Estimated
Sat 06:28:00 AM 41.1759 1.0765 80° East  Level Estimated
Sat 06:29:00 AM 41.1936 1.2186 81° East  Level Estimated
Sat 06:30:00 AM 41.2112 1.3608 81° East  Level Estimated
Sat 06:31:00 AM 41.2286 1.5031 81° East  Level Estimated
Sat 06:32:00 AM 41.2458 1.6455 81° East  Level Estimated
Sat 06:33:00 AM 41.2629 1.7879 81° East  Level Estimated
Sat 06:34:00 AM 41.2798 1.9304 81° East  Level Estimated
Sat 06:35:00 AM 41.2965 2.0730 81° East  Level Estimated
Sat 06:36:00 AM 41.2971 2.0785 81° East  Level Estimated
Sat 06:37:00 AM 41.2971 2.0785 124° Southeast  Level Estimated
Sat 06:38:00 AM 41.2971 2.0785 124° Southeast  Level Estimated
Sat 06:39:00 AM 41.2971 2.0785 124° Southeast  Level Estimated
Sat 06:40:00 AM 41.2971 2.0785 124° Southeast  Level Estimated
Sat 06:41:00 AM 41.2971 2.0785 124° Southeast  Level Estimated
Sat 06:42:00 AM 41.2971 2.0785 124° Southeast  Level Estimated
Sat 06:43:00 AM 41.2971 2.0785 124° Southeast  Level Estimated
Sat 06:44:00 AM 41.2971 2.0785 124° Southeast  Level Estimated
Sat 06:45:00 AM 41.2971 2.0785 124° Southeast  Level Estimated
Sat 06:46:00 AM 41.2971 2.0785 124° Southeast  Level Estimated
Sat 06:47:00 AM 41.2971 2.0785 124° Southeast  Level Estimated
Sat 06:48:00 AM 41.2971 2.0785 124° Southeast  Level Estimated
Sat 06:49:00 AM 41.2971 2.0785 124° Southeast  Level Estimated
Sat 06:50:00 AM 41.2971 2.0785 124° Southeast  Level Estimated
Sat 06:51:00 AM 41.2971 2.0785 124° Southeast  Level Estimated

Login

Don't have an account? Register now (free) for customized features, flight alerts, and more!